Time;durP1;ratioP1;P1;durP2;ratioP2;P2;SDS_P1;SDS_P2;PMS_P1;PMS_P2;Temp;Humidity;BMP_temperature;BMP_pressure;BME280_temperature;BME280_humidity;BME280_pressure;Samples;Min_cycle;Max_cycle;Signal;HPM_P1;HPM_P2
2023/01/22 00:01:37;;;;;;;33.22;17.15;;;;;;;;;;4939688;28;93419;-69
2023/01/22 00:04:03;;;;;;;30.70;16.70;;;;;;;;;;4930313;28;92687;-69
2023/01/22 00:06:30;;;;;;;31.98;17.80;;;;;;;;;;4932084;28;95741;-69
2023/01/22 00:08:59;;;;;;;31.58;17.83;;;;;;;;;;4933643;28;93471;-68
2023/01/22 00:11:26;;;;;;;34.20;17.58;;;;;;;;;;4933874;28;92623;-68
2023/01/22 00:13:52;;;;;;;34.55;18.40;;;;;;;;;;4936061;28;93422;-69
2023/01/22 00:16:19;;;;;;;28.00;16.38;;;;;;;;;;4934463;28;93420;-69
2023/01/22 00:18:45;;;;;;;32.22;16.35;;;;;;;;;;4928829;28;93331;-69
2023/01/22 00:21:12;;;;;;;28.80;16.23;;;;;;;;;;4933889;28;94453;-69
2023/01/22 00:23:38;;;;;;;29.90;16.15;;;;;;;;;;4929881;28;91746;-69
2023/01/22 00:26:06;;;;;;;31.15;16.90;;;;;;;;;;4934542;28;92526;-69
2023/01/22 00:28:32;;;;;;;29.48;16.40;;;;;;;;;;4932976;28;93836;-69
2023/01/22 00:31:00;;;;;;;29.48;16.88;;;;;;;;;;4932696;28;95139;-69
2023/01/22 00:33:26;;;;;;;28.50;16.85;;;;;;;;;;4931462;28;97085;-70
2023/01/22 00:35:53;;;;;;;27.75;16.85;;;;;;;;;;4935920;28;93616;-69
2023/01/22 00:38:19;;;;;;;30.48;15.93;;;;;;;;;;4946108;28;93313;-69
2023/01/22 00:40:45;;;;;;;26.77;15.35;;;;;;;;;;4937595;28;93937;-69
2023/01/22 00:43:12;;;;;;;28.02;16.83;;;;;;;;;;4933528;28;92525;-69
2023/01/22 00:45:38;;;;;;;27.63;16.90;;;;;;;;;;4932508;28;93940;-70
2023/01/22 00:48:05;;;;;;;29.13;16.65;;;;;;;;;;4933021;28;92903;-68
2023/01/22 00:50:31;;;;;;;25.13;16.15;;;;;;;;;;4933627;28;93240;-69
2023/01/22 00:52:57;;;;;;;27.83;16.02;;;;;;;;;;4936056;28;93891;-69
2023/01/22 00:55:24;;;;;;;29.05;16.02;;;;;;;;;;4944651;28;95928;-69
2023/01/22 00:57:50;;;;;;;25.48;15.68;;;;;;;;;;4934885;28;92433;-69
2023/01/22 01:00:18;;;;;;;28.25;16.23;;;;;;;;;;4931874;28;93907;-69
2023/01/22 01:05:30;;;;;;;27.60;15.45;;;;;;;;;;4931482;28;93458;-69
2023/01/22 01:07:56;;;;;;;24.17;14.90;;;;;;;;;;4934155;28;94058;-70
2023/01/22 01:10:23;;;;;;;23.17;14.98;;;;;;;;;;4935283;28;92513;-70
2023/01/22 01:12:50;;;;;;;23.67;15.10;;;;;;;;;;4936548;28;92698;-69
2023/01/22 01:15:16;;;;;;;25.35;15.15;;;;;;;;;;4935369;28;93502;-70
2023/01/22 01:17:45;;;;;;;23.73;15.20;;;;;;;;;;4937519;28;93203;-70
2023/01/22 01:20:11;;;;;;;23.83;15.20;;;;;;;;;;4937449;28;94881;-69
2023/01/22 01:22:37;;;;;;;29.67;15.82;;;;;;;;;;4934624;28;92637;-70
2023/01/22 01:25:04;;;;;;;25.25;14.63;;;;;;;;;;4921675;28;93536;-70
2023/01/22 01:27:31;;;;;;;25.63;14.73;;;;;;;;;;4936129;28;93437;-70
2023/01/22 01:29:57;;;;;;;23.55;13.88;;;;;;;;;;4936228;28;92401;-69
2023/01/22 01:32:24;;;;;;;26.90;14.95;;;;;;;;;;4935372;28;93398;-69
2023/01/22 01:34:50;;;;;;;21.65;13.85;;;;;;;;;;4935912;28;93562;-70
2023/01/22 01:37:16;;;;;;;22.13;14.13;;;;;;;;;;4935043;28;91795;-70
2023/01/22 01:39:43;;;;;;;27.02;14.65;;;;;;;;;;4935112;28;92615;-70
2023/01/22 01:42:09;;;;;;;23.20;14.00;;;;;;;;;;4938342;28;93680;-69
2023/01/22 01:44:36;;;;;;;24.70;14.93;;;;;;;;;;4929303;28;94840;-69
2023/01/22 01:47:04;;;;;;;21.20;13.65;;;;;;;;;;4938781;28;93752;-70
2023/01/22 01:49:33;;;;;;;26.52;14.68;;;;;;;;;;4928171;28;92626;-71
2023/01/22 01:52:01;;;;;;;24.92;14.48;;;;;;;;;;4940446;28;93020;-71
2023/01/22 01:54:28;;;;;;;25.38;14.27;;;;;;;;;;4943606;28;93419;-70
2023/01/22 01:56:59;;;;;;;27.63;14.85;;;;;;;;;;4938285;28;92677;-70
2023/01/22 01:59:25;;;;;;;24.17;13.55;;;;;;;;;;4935444;28;94457;-70
2023/01/22 02:01:53;;;;;;;26.23;14.50;;;;;;;;;;4937915;28;95799;-70
2023/01/22 02:04:19;;;;;;;22.27;13.98;;;;;;;;;;4937365;28;92668;-69
2023/01/22 02:06:46;;;;;;;21.38;13.07;;;;;;;;;;4935400;28;93526;-70
2023/01/22 02:09:13;;;;;;;24.73;13.30;;;;;;;;;;4939034;28;94882;-70
2023/01/22 02:11:39;;;;;;;20.15;13.00;;;;;;;;;;4934931;28;95916;-70
2023/01/22 02:14:11;;;;;;;23.00;13.73;;;;;;;;;;4931549;28;92476;-70
2023/01/22 02:16:37;;;;;;;21.42;13.25;;;;;;;;;;4933105;28;92696;-69
2023/01/22 02:19:04;;;;;;;22.13;13.25;;;;;;;;;;4936034;28;93278;-69
2023/01/22 02:21:35;;;;;;;27.75;12.88;;;;;;;;;;4941036;28;93479;-69
2023/01/22 02:24:12;;;;;;;24.95;13.98;;;;;;;;;;4932597;28;92448;-69
2023/01/22 02:26:40;;;;;;;18.80;12.20;;;;;;;;;;4933968;28;92776;-69
2023/01/22 02:29:07;;;;;;;20.60;12.93;;;;;;;;;;4938192;28;92452;-69
2023/01/22 02:31:34;;;;;;;20.80;12.40;;;;;;;;;;4938262;28;93252;-69
2023/01/22 02:34:00;;;;;;;24.15;12.65;;;;;;;;;;4933339;28;94877;-70
2023/01/22 02:36:31;;;;;;;24.58;12.27;;;;;;;;;;4934056;28;92584;-70
2023/01/22 02:38:57;;;;;;;22.73;11.75;;;;;;;;;;4947701;28;93154;-70
2023/01/22 02:41:24;;;;;;;19.98;11.43;;;;;;;;;;4930772;28;93697;-70
2023/01/22 02:43:50;;;;;;;21.17;12.60;;;;;;;;;;4940165;28;92539;-69
2023/01/22 02:46:17;;;;;;;17.55;11.25;;;;;;;;;;4950651;28;97104;-69
2023/01/22 02:48:43;;;;;;;22.20;11.65;;;;;;;;;;4936184;28;93210;-69
2023/01/22 02:51:09;;;;;;;21.10;12.05;;;;;;;;;;4948821;28;93719;-69
2023/01/22 02:53:36;;;;;;;20.40;11.52;;;;;;;;;;4934368;28;93966;-69
2023/01/22 02:56:06;;;;;;;22.40;11.57;;;;;;;;;;4946566;28;93351;-68
2023/01/22 02:58:33;;;;;;;18.20;11.35;;;;;;;;;;4934531;28;96649;-70
2023/01/22 03:01:21;;;;;;;20.05;11.50;;;;;;;;;;4938680;28;94027;-70
2023/01/22 03:03:57;;;;;;;23.17;12.80;;;;;;;;;;4937455;28;93776;-70
2023/01/22 03:06:25;;;;;;;22.98;12.70;;;;;;;;;;4935542;28;93263;-70
2023/01/22 03:08:53;;;;;;;21.58;11.88;;;;;;;;;;4942693;28;93570;-69
2023/01/22 03:11:20;;;;;;;18.73;11.27;;;;;;;;;;4939253;28;93199;-68
2023/01/22 03:22:01;;;;;;;18.48;10.55;;;;;;;;;;4938835;28;93735;-70
2023/01/22 03:24:27;;;;;;;19.77;11.70;;;;;;;;;;4930161;28;94915;-69
2023/01/22 03:26:54;;;;;;;22.13;11.90;;;;;;;;;;4932674;28;95522;-69
2023/01/22 03:29:20;;;;;;;21.15;10.73;;;;;;;;;;4941950;28;95099;-69
2023/01/22 03:31:47;;;;;;;22.45;10.93;;;;;;;;;;4941784;28;92585;-69
2023/01/22 03:34:14;;;;;;;15.43;10.40;;;;;;;;;;4937771;28;93419;-70
2023/01/22 03:36:41;;;;;;;21.50;11.48;;;;;;;;;;4934939;28;92555;-69
2023/01/22 03:39:07;;;;;;;19.02;11.68;;;;;;;;;;4939867;28;94249;-69
2023/01/22 03:41:33;;;;;;;24.23;11.00;;;;;;;;;;4946225;28;93175;-69
2023/01/22 03:44:02;;;;;;;18.35;11.38;;;;;;;;;;4934905;28;92643;-70
2023/01/22 03:46:29;;;;;;;20.60;10.93;;;;;;;;;;4936945;28;93197;-69
2023/01/22 03:48:55;;;;;;;21.50;10.68;;;;;;;;;;4924310;28;95975;-71
2023/01/22 03:51:22;;;;;;;18.83;10.07;;;;;;;;;;4945394;28;92565;-70
2023/01/22 03:53:49;;;;;;;19.00;10.68;;;;;;;;;;4940407;28;93913;-70
2023/01/22 03:56:19;;;;;;;17.40;10.50;;;;;;;;;;4937709;28;92446;-70
2023/01/22 03:58:46;;;;;;;18.75;10.60;;;;;;;;;;4932666;28;93231;-70
2023/01/22 04:01:13;;;;;;;19.00;10.20;;;;;;;;;;4933620;28;92509;-70
2023/01/22 04:03:40;;;;;;;16.63;10.52;;;;;;;;;;4931253;28;92579;-70
2023/01/22 04:06:08;;;;;;;18.50;10.40;;;;;;;;;;4948620;28;94243;-70
2023/01/22 04:08:35;;;;;;;19.05;10.77;;;;;;;;;;4932898;28;94004;-69
2023/01/22 04:11:01;;;;;;;20.67;10.35;;;;;;;;;;4937502;28;92954;-70
2023/01/22 04:13:28;;;;;;;16.63;10.30;;;;;;;;;;4937383;28;95641;-70
2023/01/22 04:15:55;;;;;;;16.90;10.65;;;;;;;;;;4939681;28;94865;-70
2023/01/22 04:18:21;;;;;;;19.13;11.18;;;;;;;;;;4935882;28;93228;-70
2023/01/22 04:20:48;;;;;;;21.83;11.05;;;;;;;;;;4953500;28;95041;-71
2023/01/22 04:23:15;;;;;;;22.77;11.60;;;;;;;;;;4941420;28;92494;-71
2023/01/22 04:25:42;;;;;;;19.20;11.05;;;;;;;;;;4933484;28;93672;-70
2023/01/22 04:28:09;;;;;;;23.90;11.48;;;;;;;;;;4929289;28;93492;-70
2023/01/22 04:30:36;;;;;;;23.58;11.57;;;;;;;;;;4936668;28;92029;-71
2023/01/22 04:33:02;;;;;;;22.88;11.65;;;;;;;;;;4943592;28;92811;-71
2023/01/22 04:35:29;;;;;;;24.20;11.85;;;;;;;;;;4948303;28;93451;-70
2023/01/22 04:37:56;;;;;;;20.65;11.55;;;;;;;;;;4936656;28;94838;-70
2023/01/22 04:40:23;;;;;;;22.45;12.27;;;;;;;;;;4940339;28;93289;-70
2023/01/22 04:42:49;;;;;;;23.13;12.18;;;;;;;;;;4947736;28;92511;-70
2023/01/22 04:45:16;;;;;;;21.40;11.60;;;;;;;;;;4935891;28;93387;-70
2023/01/22 04:47:43;;;;;;;20.23;12.48;;;;;;;;;;4942926;28;93392;-70
2023/01/22 04:50:20;;;;;;;18.40;11.70;;;;;;;;;;4938655;28;92441;-70
2023/01/22 04:52:48;;;;;;;20.35;11.73;;;;;;;;;;4943031;28;93702;-70
2023/01/22 04:55:15;;;;;;;21.20;11.65;;;;;;;;;;4939691;28;93040;-71
2023/01/22 04:57:41;;;;;;;21.63;11.70;;;;;;;;;;4936362;28;94208;-71
2023/01/22 05:00:09;;;;;;;18.23;11.25;;;;;;;;;;4936142;28;93652;-71
2023/01/22 05:02:36;;;;;;;21.35;10.93;;;;;;;;;;4937722;28;95129;-69
2023/01/22 05:05:03;;;;;;;20.05;11.55;;;;;;;;;;4945366;28;96154;-70
2023/01/22 05:07:29;;;;;;;22.67;11.38;;;;;;;;;;4936109;28;93519;-70
2023/01/22 05:09:56;;;;;;;25.45;11.52;;;;;;;;;;4944867;28;92540;-69
2023/01/22 05:12:22;;;;;;;21.17;11.88;;;;;;;;;;4941284;28;93268;-70
2023/01/22 05:14:49;;;;;;;23.50;11.07;;;;;;;;;;4949508;28;93693;-69
2023/01/22 05:17:15;;;;;;;17.15;10.65;;;;;;;;;;4935921;28;92443;-70
2023/01/22 05:19:41;;;;;;;23.23;10.43;;;;;;;;;;4939879;28;93289;-70
2023/01/22 05:22:08;;;;;;;21.05;11.80;;;;;;;;;;4937304;28;92565;-70
2023/01/22 05:24:34;;;;;;;21.77;11.05;;;;;;;;;;4952816;28;93187;-70
2023/01/22 05:27:00;;;;;;;20.92;11.40;;;;;;;;;;4941370;28;95828;-70
2023/01/22 05:29:26;;;;;;;20.15;11.13;;;;;;;;;;4943832;28;92824;-70
2023/01/22 05:31:53;;;;;;;22.52;10.98;;;;;;;;;;4935046;28;94246;-68
2023/01/22 05:34:20;;;;;;;23.95;11.82;;;;;;;;;;4936335;28;93479;-68
2023/01/22 05:36:46;;;;;;;20.73;10.38;;;;;;;;;;4938911;28;92923;-71
2023/01/22 05:39:13;;;;;;;15.18;9.57;;;;;;;;;;4945971;28;93278;-67
2023/01/22 05:41:40;;;;;;;15.98;10.15;;;;;;;;;;4945001;28;93471;-68
2023/01/22 05:44:06;;;;;;;22.55;11.18;;;;;;;;;;4944300;28;92332;-68
2023/01/22 05:46:33;;;;;;;19.33;10.85;;;;;;;;;;4942514;28;94036;-70
2023/01/22 05:48:59;;;;;;;16.45;10.45;;;;;;;;;;4956019;28;92461;-69
2023/01/22 05:51:25;;;;;;;19.73;10.00;;;;;;;;;;4942128;28;94917;-68
2023/01/22 05:53:52;;;;;;;15.13;10.13;;;;;;;;;;4941109;28;93419;-68
2023/01/22 05:56:18;;;;;;;20.77;10.65;;;;;;;;;;4938589;28;92562;-68
2023/01/22 05:58:44;;;;;;;16.42;9.85;;;;;;;;;;4951836;28;93137;-68
2023/01/22 06:01:10;;;;;;;28.35;11.15;;;;;;;;;;4942950;28;93694;-70
2023/01/22 06:03:37;;;;;;;20.52;10.07;;;;;;;;;;4942171;28;93722;-69
2023/01/22 06:06:05;;;;;;;16.33;11.13;;;;;;;;;;4934123;28;95171;-68
2023/01/22 06:08:31;;;;;;;15.90;9.98;;;;;;;;;;4952274;28;91806;-68
2023/01/22 06:11:00;;;;;;;14.50;10.20;;;;;;;;;;4950095;28;92981;-68
2023/01/22 06:13:27;;;;;;;19.85;11.45;;;;;;;;;;4938976;28;96587;-67
2023/01/22 06:15:53;;;;;;;18.08;10.88;;;;;;;;;;4931920;28;95040;-68
2023/01/22 06:18:20;;;;;;;20.98;11.38;;;;;;;;;;4943625;28;99160;-68
2023/01/22 06:20:46;;;;;;;17.42;11.02;;;;;;;;;;4946160;28;97501;-68
2023/01/22 06:23:13;;;;;;;29.92;11.70;;;;;;;;;;4936702;28;92839;-68
2023/01/22 06:25:39;;;;;;;19.48;11.55;;;;;;;;;;4950614;28;93205;-68
2023/01/22 06:28:05;;;;;;;17.73;10.52;;;;;;;;;;4936732;28;92486;-68
2023/01/22 06:30:32;;;;;;;20.33;11.38;;;;;;;;;;4934417;28;93153;-68
2023/01/22 06:32:58;;;;;;;17.25;11.02;;;;;;;;;;4932563;28;92925;-68
2023/01/22 06:35:24;;;;;;;21.50;11.13;;;;;;;;;;4935908;28;93795;-70
2023/01/22 06:37:50;;;;;;;19.40;10.98;;;;;;;;;;4935084;28;92980;-68
2023/01/22 06:40:17;;;;;;;20.83;11.57;;;;;;;;;;4933097;28;96241;-68
2023/01/22 06:42:43;;;;;;;19.30;10.82;;;;;;;;;;4935338;28;92529;-68
2023/01/22 06:45:10;;;;;;;23.02;10.70;;;;;;;;;;4938190;28;93377;-68
2023/01/22 06:47:36;;;;;;;20.10;10.85;;;;;;;;;;4935316;28;92387;-69
2023/01/22 06:50:03;;;;;;;20.67;11.30;;;;;;;;;;4934198;28;93282;-69
2023/01/22 06:52:29;;;;;;;16.88;10.40;;;;;;;;;;4933465;28;93446;-68
2023/01/22 06:54:55;;;;;;;19.00;9.75;;;;;;;;;;4935049;28;92735;-68
2023/01/22 06:57:22;;;;;;;16.58;10.60;;;;;;;;;;4936002;28;93259;-69
2023/01/22 06:59:49;;;;;;;23.52;10.25;;;;;;;;;;4940357;28;94464;-68
2023/01/22 07:02:16;;;;;;;16.92;10.48;;;;;;;;;;4947501;28;92549;-69
2023/01/22 07:04:42;;;;;;;15.57;9.63;;;;;;;;;;4931556;28;94888;-69
2023/01/22 07:07:09;;;;;;;17.50;10.57;;;;;;;;;;4943281;28;93390;-69
2023/01/22 07:09:35;;;;;;;17.80;9.75;;;;;;;;;;4939175;28;93333;-70
2023/01/22 07:12:01;;;;;;;15.27;9.98;;;;;;;;;;4941679;28;93527;-69
2023/01/22 07:14:29;;;;;;;18.27;10.35;;;;;;;;;;4935704;28;92958;-69
2023/01/22 07:17:02;;;;;;;18.70;10.98;;;;;;;;;;4943831;28;96311;-69
2023/01/22 07:19:28;;;;;;;16.83;9.38;;;;;;;;;;4940473;28;93225;-68
2023/01/22 07:21:55;;;;;;;19.08;10.18;;;;;;;;;;4939067;28;91777;-69
2023/01/22 07:24:21;;;;;;;25.63;10.48;;;;;;;;;;4936899;28;93641;-67
2023/01/22 07:26:48;;;;;;;16.40;9.88;;;;;;;;;;4935385;28;94036;-67
2023/01/22 07:29:14;;;;;;;16.85;9.63;;;;;;;;;;4937566;28;94889;-67
2023/01/22 07:31:41;;;;;;;11.80;8.90;;;;;;;;;;4940679;28;93574;-67
2023/01/22 07:34:07;;;;;;;14.70;9.05;;;;;;;;;;4941024;28;92497;-66
2023/01/22 07:36:34;;;;;;;15.02;9.32;;;;;;;;;;4932627;28;93171;-67
2023/01/22 07:39:04;;;;;;;14.70;9.50;;;;;;;;;;4932824;28;93766;-67
2023/01/22 07:41:31;;;;;;;13.02;8.77;;;;;;;;;;4933421;28;92789;-67
2023/01/22 07:43:59;;;;;;;18.27;9.85;;;;;;;;;;4935074;28;93333;-67
2023/01/22 07:46:26;;;;;;;20.30;9.25;;;;;;;;;;4927033;28;93002;-66
2023/01/22 07:48:52;;;;;;;14.07;9.23;;;;;;;;;;4941912;28;92501;-66
2023/01/22 07:51:19;;;;;;;13.20;8.90;;;;;;;;;;4937532;28;94261;-67
2023/01/22 07:53:45;;;;;;;17.17;9.95;;;;;;;;;;4933548;28;94899;-66
2023/01/22 07:56:12;;;;;;;12.90;9.38;;;;;;;;;;4934768;28;95440;-66
2023/01/22 07:58:39;;;;;;;20.33;9.88;;;;;;;;;;4935583;28;94340;-66
2023/01/22 08:01:06;;;;;;;17.92;8.95;;;;;;;;;;4935906;28;93908;-66
2023/01/22 08:03:32;;;;;;;17.77;9.10;;;;;;;;;;4931924;28;94120;-67
2023/01/22 08:05:59;;;;;;;16.55;9.82;;;;;;;;;;4932753;28;94442;-67
2023/01/22 08:08:25;;;;;;;12.70;8.60;;;;;;;;;;4933844;28;92532;-67
2023/01/22 08:10:52;;;;;;;16.13;8.75;;;;;;;;;;4934403;28;93472;-66
2023/01/22 08:13:18;;;;;;;12.43;8.23;;;;;;;;;;4937026;28;93414;-67
2023/01/22 08:15:44;;;;;;;13.93;9.85;;;;;;;;;;4937554;28;93916;-66
2023/01/22 08:18:10;;;;;;;15.02;9.07;;;;;;;;;;4923135;28;97828;-66
2023/01/22 08:20:37;;;;;;;11.40;7.35;;;;;;;;;;4942993;28;93217;-66
2023/01/22 08:23:03;;;;;;;12.40;8.05;;;;;;;;;;4933543;28;93662;-67
2023/01/22 08:25:29;;;;;;;11.35;8.25;;;;;;;;;;4930766;28;93449;-67
2023/01/22 08:27:59;;;;;;;11.68;7.70;;;;;;;;;;4932148;28;92822;-67
2023/01/22 08:30:26;;;;;;;12.77;7.90;;;;;;;;;;4931892;28;93438;-67
2023/01/22 08:32:53;;;;;;;16.85;7.90;;;;;;;;;;4944703;28;93508;-67
2023/01/22 08:35:20;;;;;;;13.10;7.57;;;;;;;;;;4936746;28;93378;-67
2023/01/22 08:37:46;;;;;;;11.35;7.60;;;;;;;;;;4934692;28;93435;-67
2023/01/22 08:40:13;;;;;;;12.85;7.57;;;;;;;;;;4934570;28;92518;-67
2023/01/22 08:42:39;;;;;;;14.50;7.85;;;;;;;;;;4950326;28;95965;-67
2023/01/22 08:45:06;;;;;;;9.80;7.38;;;;;;;;;;4953151;28;94954;-67
2023/01/22 08:47:33;;;;;;;15.82;7.50;;;;;;;;;;4934809;28;92462;-67
2023/01/22 08:50:01;;;;;;;14.02;8.75;;;;;;;;;;4932960;28;93187;-66
2023/01/22 08:52:27;;;;;;;10.90;7.47;;;;;;;;;;4941615;28;93513;-67
2023/01/22 08:54:54;;;;;;;12.77;6.95;;;;;;;;;;4957923;28;93023;-67
2023/01/22 08:57:20;;;;;;;12.18;7.75;;;;;;;;;;4954564;28;94517;-66
2023/01/22 08:59:46;;;;;;;14.32;7.90;;;;;;;;;;4953009;28;91711;-67
2023/01/22 09:02:26;;;;;;;13.02;6.97;;;;;;;;;;4946253;28;92752;-67
2023/01/22 09:04:53;;;;;;;12.45;7.50;;;;;;;;;;4933702;28;93386;-67
2023/01/22 09:07:19;;;;;;;14.85;7.10;;;;;;;;;;4938185;28;95848;-66
2023/01/22 09:09:45;;;;;;;13.77;7.50;;;;;;;;;;4938330;28;96590;-67
2023/01/22 09:12:12;;;;;;;12.23;6.93;;;;;;;;;;4934574;28;93684;-66
2023/01/22 09:14:38;;;;;;;10.88;6.85;;;;;;;;;;4941674;28;92969;-67
2023/01/22 09:17:04;;;;;;;9.75;7.00;;;;;;;;;;4941476;28;93181;-67
2023/01/22 09:19:30;;;;;;;13.27;7.07;;;;;;;;;;4937103;28;92651;-67
2023/01/22 09:21:57;;;;;;;13.55;6.47;;;;;;;;;;4955936;28;93086;-67
2023/01/22 09:24:23;;;;;;;8.82;6.85;;;;;;;;;;4943914;28;92800;-67
2023/01/22 09:26:49;;;;;;;11.50;6.20;;;;;;;;;;4943645;28;92534;-67
2023/01/22 09:29:16;;;;;;;14.88;6.20;;;;;;;;;;4942956;28;93183;-67
2023/01/22 09:31:42;;;;;;;11.07;6.63;;;;;;;;;;4948254;28;94781;-67
2023/01/22 09:34:09;;;;;;;11.02;6.50;;;;;;;;;;4965091;28;92401;-67
2023/01/22 09:36:35;;;;;;;10.95;6.93;;;;;;;;;;4964289;28;93235;-67
2023/01/22 09:39:01;;;;;;;14.40;6.68;;;;;;;;;;4963872;28;93562;-68
2023/01/22 09:41:33;;;;;;;13.43;6.45;;;;;;;;;;4952851;28;95096;-68
2023/01/22 09:44:13;;;;;;;14.95;7.35;;;;;;;;;;4952513;28;92945;-68
2023/01/22 09:46:41;;;;;;;12.03;6.07;;;;;;;;;;4953561;28;92617;-68
2023/01/22 09:49:18;;;;;;;15.18;6.93;;;;;;;;;;4952668;28;93084;-68
2023/01/22 09:51:52;;;;;;;13.40;7.30;;;;;;;;;;4948724;28;92410;-68
2023/01/22 09:54:18;;;;;;;10.77;6.57;;;;;;;;;;4945856;28;92376;-68
2023/01/22 09:56:46;;;;;;;11.73;7.28;;;;;;;;;;4969759;28;94777;-68
2023/01/22 09:59:15;;;;;;;12.48;6.60;;;;;;;;;;4969550;28;93486;-68
2023/01/22 10:01:42;;;;;;;9.40;6.15;;;;;;;;;;4972065;28;92481;-68
2023/01/22 10:04:18;;;;;;;10.85;6.20;;;;;;;;;;4964046;28;92394;-67
2023/01/22 10:06:45;;;;;;;17.85;7.32;;;;;;;;;;4946955;28;92535;-68
2023/01/22 10:09:13;;;;;;;9.25;6.05;;;;;;;;;;4952090;28;93300;-68
2023/01/22 10:11:39;;;;;;;11.32;6.88;;;;;;;;;;4939437;28;93629;-68
2023/01/22 10:14:08;;;;;;;12.27;6.65;;;;;;;;;;4938093;28;91791;-68
2023/01/22 10:16:35;;;;;;;15.40;6.78;;;;;;;;;;4937338;28;92708;-68
2023/01/22 10:19:01;;;;;;;11.02;6.28;;;;;;;;;;4936694;28;93923;-68
2023/01/22 10:21:28;;;;;;;12.18;6.50;;;;;;;;;;4934555;28;94972;-67
2023/01/22 10:23:56;;;;;;;13.13;6.68;;;;;;;;;;4940405;28;95610;-68
2023/01/22 10:26:31;;;;;;;7.57;5.63;;;;;;;;;;4936741;28;92543;-68
2023/01/22 10:28:58;;;;;;;12.95;6.32;;;;;;;;;;4924366;28;93297;-68
2023/01/22 10:31:28;;;;;;;12.25;6.30;;;;;;;;;;4917574;28;93422;-68
2023/01/22 10:33:59;;;;;;;14.55;6.50;;;;;;;;;;4950124;28;92449;-67
2023/01/22 10:36:26;;;;;;;11.13;6.78;;;;;;;;;;4953526;28;94350;-68
2023/01/22 10:39:07;;;;;;;11.65;6.47;;;;;;;;;;4956471;28;92717;-68
2023/01/22 10:41:33;;;;;;;12.90;6.70;;;;;;;;;;4939743;28;92713;-68
2023/01/22 10:44:15;;;;;;;11.20;6.45;;;;;;;;;;4939148;28;93243;-67
2023/01/22 10:46:41;;;;;;;11.43;7.28;;;;;;;;;;4933985;28;94881;-68
2023/01/22 10:49:15;;;;;;;11.77;6.40;;;;;;;;;;4943326;28;98425;-68
2023/01/22 10:51:44;;;;;;;8.80;6.15;;;;;;;;;;4942038;28;93759;-68
2023/01/22 10:54:21;;;;;;;12.18;7.10;;;;;;;;;;4935714;28;92748;-67
2023/01/22 10:56:48;;;;;;;9.35;6.07;;;;;;;;;;4935898;28;93665;-68
2023/01/22 10:59:25;;;;;;;12.23;6.53;;;;;;;;;;4935508;28;93544;-68
2023/01/22 11:01:59;;;;;;;9.60;7.15;;;;;;;;;;4936547;28;92412;-68
2023/01/22 11:04:30;;;;;;;7.55;6.07;;;;;;;;;;4954158;28;93182;-68
2023/01/22 11:07:07;;;;;;;14.10;6.90;;;;;;;;;;4955081;28;93535;-68
2023/01/22 11:09:41;;;;;;;10.18;6.30;;;;;;;;;;4954752;28;93408;-68
2023/01/22 11:12:20;;;;;;;12.10;6.72;;;;;;;;;;4936000;28;95816;-68
2023/01/22 11:14:49;;;;;;;9.95;6.32;;;;;;;;;;4935836;28;92973;-68
2023/01/22 11:17:21;;;;;;;10.43;6.10;;;;;;;;;;4935495;28;92446;-68
2023/01/22 11:19:53;;;;;;;7.93;6.10;;;;;;;;;;4953782;28;94614;-68
2023/01/22 11:22:22;;;;;;;11.32;6.78;;;;;;;;;;4954609;28;92444;-68
2023/01/22 11:24:48;;;;;;;11.82;6.65;;;;;;;;;;4936250;28;94154;-68
2023/01/22 11:27:18;;;;;;;10.10;6.97;;;;;;;;;;4933443;28;93418;-68
2023/01/22 11:29:56;;;;;;;8.85;6.43;;;;;;;;;;4937936;28;93185;-68
2023/01/22 11:32:35;;;;;;;10.60;6.95;;;;;;;;;;4949834;28;92797;-68
2023/01/22 11:35:17;;;;;;;10.45;6.35;;;;;;;;;;4935844;28;92456;-68
2023/01/22 11:37:47;;;;;;;9.70;6.40;;;;;;;;;;4945321;28;94897;-69
2023/01/22 11:40:29;;;;;;;8.25;6.57;;;;;;;;;;4953355;28;93771;-68
2023/01/22 11:43:17;;;;;;;11.60;6.47;;;;;;;;;;4949294;28;92483;-68
2023/01/22 11:45:53;;;;;;;13.05;6.55;;;;;;;;;;4935332;28;94463;-68
2023/01/22 11:48:19;;;;;;;12.40;7.18;;;;;;;;;;4935754;28;92461;-68
2023/01/22 11:51:06;;;;;;;11.63;6.53;;;;;;;;;;4940673;28;94617;-68
2023/01/22 11:53:51;;;;;;;8.90;6.47;;;;;;;;;;4933625;28;93376;-69
2023/01/22 11:56:27;;;;;;;14.13;6.65;;;;;;;;;;4953313;28;91946;-68
2023/01/22 11:59:01;;;;;;;9.52;6.13;;;;;;;;;;4953870;28;92466;-68
2023/01/22 12:01:38;;;;;;;12.75;6.47;;;;;;;;;;4951262;28;93464;-68
2023/01/22 12:04:10;;;;;;;9.10;5.97;;;;;;;;;;4932909;28;94929;-68
2023/01/22 12:07:03;;;;;;;9.05;6.32;;;;;;;;;;4938953;28;95652;-68
2023/01/22 12:09:32;;;;;;;10.05;7.00;;;;;;;;;;4934972;28;92537;-67
2023/01/22 12:12:12;;;;;;;9.05;6.88;;;;;;;;;;4941174;28;92487;-68
2023/01/22 12:14:48;;;;;;;9.30;5.80;;;;;;;;;;4954054;28;93307;-68
2023/01/22 12:17:15;;;;;;;17.08;6.45;;;;;;;;;;4939269;28;94656;-68
2023/01/22 12:20:01;;;;;;;9.27;6.88;;;;;;;;;;4933647;28;93174;-68
2023/01/22 12:22:36;;;;;;;8.85;7.18;;;;;;;;;;4935258;28;94073;-68
2023/01/22 12:25:03;;;;;;;9.70;6.75;;;;;;;;;;4947005;28;92765;-68
2023/01/22 12:27:34;;;;;;;12.50;7.00;;;;;;;;;;4954608;28;92975;-68
2023/01/22 12:30:16;;;;;;;12.00;6.82;;;;;;;;;;4953353;28;95798;-67
2023/01/22 12:32:45;;;;;;;9.93;7.00;;;;;;;;;;4937548;28;92570;-68
2023/01/22 12:35:14;;;;;;;14.05;7.35;;;;;;;;;;4937392;28;93558;-68
2023/01/22 12:37:47;;;;;;;12.55;7.60;;;;;;;;;;4935036;28;93459;-68
2023/01/22 12:40:30;;;;;;;10.48;6.80;;;;;;;;;;4937898;28;92833;-68
2023/01/22 12:42:59;;;;;;;11.07;6.95;;;;;;;;;;4931118;28;93501;-68
2023/01/22 12:45:44;;;;;;;14.23;6.68;;;;;;;;;;4928403;28;92456;-68
2023/01/22 12:48:26;;;;;;;11.93;6.93;;;;;;;;;;4934937;28;93366;-68
2023/01/22 12:50:53;;;;;;;10.15;6.85;;;;;;;;;;4933060;28;93634;-69
2023/01/22 12:53:22;;;;;;;8.43;6.57;;;;;;;;;;4931290;28;92622;-68
2023/01/22 12:55:59;;;;;;;13.60;7.90;;;;;;;;;;4931341;28;94947;-69
2023/01/22 12:58:27;;;;;;;8.90;7.45;;;;;;;;;;4937366;28;93495;-69
2023/01/22 13:01:08;;;;;;;9.55;6.75;;;;;;;;;;4940460;28;92770;-67
2023/01/22 13:03:36;;;;;;;13.98;7.53;;;;;;;;;;4941917;28;93847;-68
2023/01/22 13:06:15;;;;;;;13.98;9.10;;;;;;;;;;4957504;28;92496;-69
2023/01/22 13:08:43;;;;;;;14.70;8.00;;;;;;;;;;4958292;28;92731;-68
2023/01/22 13:11:10;;;;;;;11.45;8.15;;;;;;;;;;4950123;28;93481;-68
2023/01/22 13:13:42;;;;;;;15.82;7.90;;;;;;;;;;4937125;28;91645;-67
2023/01/22 13:16:16;;;;;;;12.70;8.18;;;;;;;;;;4947031;28;94050;-68
2023/01/22 13:18:44;;;;;;;15.25;8.18;;;;;;;;;;4938132;28;92572;-68
2023/01/22 13:21:12;;;;;;;12.27;8.00;;;;;;;;;;4936210;28;95385;-68
2023/01/22 13:23:43;;;;;;;12.63;8.02;;;;;;;;;;4933175;28;95950;-68
2023/01/22 13:26:17;;;;;;;14.30;8.45;;;;;;;;;;4941056;28;93712;-68
2023/01/22 13:28:48;;;;;;;13.73;8.15;;;;;;;;;;4935312;28;93183;-68
2023/01/22 13:31:15;;;;;;;16.05;8.23;;;;;;;;;;4939678;28;93424;-69
2023/01/22 13:33:51;;;;;;;12.90;8.45;;;;;;;;;;4943116;28;92492;-68
2023/01/22 13:36:17;;;;;;;18.67;10.38;;;;;;;;;;4956539;28;93892;-69
2023/01/22 13:38:50;;;;;;;14.10;8.93;;;;;;;;;;4956747;28;91875;-69
2023/01/22 13:41:35;;;;;;;12.98;8.27;;;;;;;;;;4945560;28;92809;-68
2023/01/22 13:44:03;;;;;;;13.38;8.23;;;;;;;;;;4948561;28;93447;-68
2023/01/22 13:46:29;;;;;;;13.68;8.65;;;;;;;;;;4936888;28;96476;-68
2023/01/22 13:49:00;;;;;;;16.60;8.30;;;;;;;;;;4935946;28;95603;-69
2023/01/22 13:51:26;;;;;;;;;;;;;;;;;;4953580;28;93615;-68
2023/01/22 13:53:54;;;;;;;15.68;8.18;;;;;;;;;;4941767;28;118869;-69
2023/01/22 13:56:21;;;;;;;12.57;8.07;;;;;;;;;;4955348;28;93545;-68
2023/01/22 13:58:47;;;;;;;13.60;7.90;;;;;;;;;;4955816;28;93452;-69
2023/01/22 14:01:31;;;;;;;13.82;8.35;;;;;;;;;;4945994;28;92978;-68
2023/01/22 14:04:04;;;;;;;15.68;8.52;;;;;;;;;;4936246;28;93191;-70
2023/01/22 14:06:46;;;;;;;15.73;8.73;;;;;;;;;;4935579;28;94882;-69
2023/01/22 14:09:12;;;;;;;18.90;8.45;;;;;;;;;;4940178;28;92550;-68
2023/01/22 14:11:39;;;;;;;12.20;8.85;;;;;;;;;;4935471;28;95835;-69
2023/01/22 14:14:16;;;;;;;24.42;9.02;;;;;;;;;;4950128;28;92438;-68
2023/01/22 14:16:43;;;;;;;12.02;8.50;;;;;;;;;;4942273;28;93274;-69
2023/01/22 14:19:09;;;;;;;16.67;8.35;;;;;;;;;;4938113;28;93904;-69
2023/01/22 14:21:36;;;;;;;14.25;7.95;;;;;;;;;;4942463;28;92621;-67
2023/01/22 14:24:03;;;;;;;17.85;9.48;;;;;;;;;;4954909;28;93385;-67
2023/01/22 14:26:29;;;;;;;12.98;8.43;;;;;;;;;;4956209;28;93404;-68
2023/01/22 14:28:55;;;;;;;12.80;8.90;;;;;;;;;;4955357;28;92155;-68
2023/01/22 14:31:22;;;;;;;16.63;8.75;;;;;;;;;;4958143;28;92711;-68
2023/01/22 14:33:48;;;;;;;20.50;9.70;;;;;;;;;;4946947;28;93305;-68
2023/01/22 14:36:14;;;;;;;18.90;9.23;;;;;;;;;;4933705;28;94875;-68
2023/01/22 14:38:40;;;;;;;13.80;8.88;;;;;;;;;;4934775;28;93502;-68
2023/01/22 14:41:07;;;;;;;19.63;10.30;;;;;;;;;;4936693;28;92830;-68
2023/01/22 14:43:34;;;;;;;20.33;8.73;;;;;;;;;;4934324;28;93032;-68
2023/01/22 14:46:00;;;;;;;16.17;9.63;;;;;;;;;;4946425;28;93961;-68